| time (UTC) | temp F | wind direction | speed MPH | gust MPH | rain 1hr in | rain 24hr in | rain mn in | humidity % | barometer mb |
| 20260505213046 | 60 | 210 | 9.0 | 17.0 | 0.00 | 0.00 | 0.00 | 30 | 1005.4 |
| 20260505211543 | 60 | 235 | 6.0 | 18.0 | 0.00 | 0.00 | 0.00 | 31 | 1005.5 |
| 20260505210034 | 60 | 193 | 6.0 | 15.0 | 0.00 | 0.00 | 0.00 | 31 | 1005.7 |
| 20260505204533 | 60 | 251 | 6.0 | 16.0 | 0.00 | 0.00 | 0.00 | 31 | 1005.9 |
| 20260505203034 | 59 | 283 | 8.0 | 17.0 | 0.00 | 0.00 | 0.00 | 31 | 1006.0 |
| 20260505201533 | 59 | 203 | 6.0 | 16.0 | 0.00 | 0.00 | 0.00 | 32 | 1006.0 |
| 20260505200025 | 60 | 245 | 6.0 | 16.0 | 0.00 | 0.00 | 0.00 | 32 | 1006.0 |
| 20260505194523 | 58 | 236 | 7.0 | 16.0 | 0.00 | 0.00 | 0.00 | 33 | 1006.0 |
| 20260505193020 | 57 | 257 | 6.0 | 19.0 | 0.00 | 0.00 | 0.00 | 33 | 1006.3 |
| 20260505191518 | 58 | 210 | 5.0 | 17.0 | 0.00 | 0.00 | 0.00 | 34 | 1006.1 |
| 20260505190028 | 58 | 233 | 8.0 | 20.0 | 0.00 | 0.00 | 0.00 | 34 | 1006.2 |
| 20260505184523 | 58 | 240 | 9.0 | 18.0 | 0.00 | 0.00 | 0.00 | 34 | 1006.0 |
| 20260505183017 | 60 | 217 | 5.0 | 10.0 | 0.00 | 0.00 | 0.00 | 35 | 1006.0 |
| 20260505181511 | 61 | 207 | 7.0 | 15.0 | 0.00 | 0.00 | 0.00 | 36 | 1006.1 |
| 20260505180008 | 58 | 221 | 5.0 | 12.0 | 0.00 | 0.00 | 0.00 | 36 | 1006.2 |
| 20260505174505 | 58 | 235 | 7.0 | 16.0 | 0.00 | 0.00 | 0.00 | 38 | 1006.1 |
| 20260505173001 | 59 | 141 | 3.0 | 12.0 | 0.00 | 0.00 | 0.00 | 39 | 1006.1 |
| 20260505171559 | 58 | 213 | 4.0 | 17.0 | 0.00 | 0.00 | 0.00 | 40 | 1005.9 |
| 20260505170055 | 56 | 231 | 6.0 | 14.0 | 0.00 | 0.00 | 0.00 | 40 | 1006.1 |
| 20260505164551 | 54 | 224 | 4.0 | 8.0 | 0.00 | 0.00 | 0.00 | 40 | 1006.1 |
| 20260505163049 | 53 | 252 | 2.0 | 11.0 | 0.00 | 0.00 | 0.00 | 40 | 1006.2 |
| 20260505161548 | 52 | 243 | 1.0 | 5.0 | 0.00 | 0.00 | 0.00 | 40 | 1006.3 |
| 20260505153046 | 56 | 199 | 4.0 | 12.0 | 0.00 | 0.00 | 0.00 | 42 | 1006.3 |
| 20260505151539 | 55 | 110 | 4.0 | 9.0 | 0.00 | 0.00 | 0.00 | 43 | 1006.3 |
| 20260505124502 | 42 | 253 | 0.0 | 1.0 | 0.00 | 0.00 | 0.00 | 44 | 1005.6 |
| 20260505123113 | 43 | 253 | 0.0 | 0.0 | 0.00 | 0.00 | 0.00 | 44 | 1005.7 |
| 20260505121554 | 44 | 253 | 0.0 | 1.0 | 0.00 | 0.00 | 0.00 | 43 | 1005.5 |
| 20260505120100 | 44 | 253 | 0.0 | 1.0 | 0.00 | 0.00 | 0.00 | 43 | 1005.4 |
| 20260505114550 | 44 | 253 | 0.0 | 0.0 | 0.00 | 0.00 | 0.00 | 42 | 1005.5 |
| 20260505113051 | 43 | 253 | 0.0 | 0.0 | 0.00 | 0.00 | 0.00 | 41 | 1005.6 |
| 20260505111544 | 44 | 253 | 0.0 | 2.0 | 0.00 | 0.00 | 0.00 | 41 | 1005.5 |
| 20260505101530 | 46 | 214 | 1.0 | 3.0 | 0.00 | 0.00 | 0.00 | 39 | 1006.1 |
| 20260505100029 | 46 | 210 | 0.0 | 4.0 | 0.00 | 0.00 | 0.00 | 39 | 1006.0 |
| 20260505094520 | 47 | 168 | 0.0 | 4.0 | 0.00 | 0.00 | 0.00 | 38 | 1006.1 |
| 20260505093017 | 48 | 200 | 3.0 | 7.0 | 0.00 | 0.00 | 0.00 | 38 | 1006.1 |
| 20260505091514 | 48 | 221 | 3.0 | 7.0 | 0.00 | 0.00 | 0.00 | 38 | 1006.2 |
| 20260505090009 | 47 | 214 | 2.0 | 5.0 | 0.00 | 0.00 | 0.00 | 38 | 1006.6 |
| 20260505084505 | 47 | 200 | 0.0 | 2.0 | 0.00 | 0.00 | 0.00 | 38 | 1006.8 |
| 20260505083112 | 48 | 239 | 3.0 | 8.0 | 0.00 | 0.00 | 0.00 | 37 | 1006.9 |
| 20260505081603 | 49 | 224 | 2.0 | 10.0 | 0.00 | 0.00 | 0.00 | 37 | 1007.0 |
| 20260505080100 | 49 | 195 | 3.0 | 8.0 | 0.00 | 0.00 | 0.00 | 37 | 1006.8 |
| 20260505074550 | 49 | 225 | 2.0 | 10.0 | 0.00 | 0.00 | 0.00 | 36 | 1006.9 |
| 20260505073053 | 50 | 199 | 5.0 | 13.0 | 0.00 | 0.00 | 0.00 | 36 | 1006.7 |
| 20260505071547 | 50 | 216 | 4.0 | 10.0 | 0.00 | 0.00 | 0.00 | 35 | 1006.9 |
| 20260505070044 | 49 | 243 | 5.0 | 14.0 | 0.00 | 0.00 | 0.00 | 34 | 1006.7 |
| 20260505064536 | 50 | 169 | 2.0 | 9.0 | 0.00 | 0.00 | 0.00 | 33 | 1006.8 |
| 20260505063039 | 50 | 229 | 5.0 | 11.0 | 0.00 | 0.00 | 0.00 | 31 | 1006.9 |
| 20260505061531 | 51 | 213 | 6.0 | 14.0 | 0.00 | 0.00 | 0.00 | 31 | 1006.7 |
| 20260505060050 | 51 | 207 | 4.0 | 13.0 | 0.00 | 0.00 | 0.00 | 30 | 1006.7 |
| 20260505054523 | 51 | 184 | 4.0 | 11.0 | 0.00 | 0.00 | 0.00 | 29 | 1006.8 |
| 20260505053021 | 51 | 218 | 4.0 | 10.0 | 0.00 | 0.00 | 0.00 | 29 | 1007.1 |
| 20260505051618 | 52 | 250 | 3.0 | 9.0 | 0.00 | 0.00 | 0.00 | 28 | 1007.1 |
| 20260505041506 | 53 | 206 | 3.0 | 11.0 | 0.00 | 0.00 | 0.00 | 27 | 1006.6 |
| 20260505034555 | 53 | 193 | 3.0 | 10.0 | 0.00 | 0.00 | 0.00 | 26 | 1006.4 |
| 20260505033052 | 54 | 238 | 5.0 | 11.0 | 0.00 | 0.00 | 0.00 | 25 | 1006.5 |
| 20260505031547 | 54 | 218 | 1.0 | 7.0 | 0.00 | 0.00 | 0.00 | 25 | 1005.8 |
| 20260505024543 | 55 | 231 | 6.0 | 13.0 | 0.00 | 0.00 | 0.00 | 24 | 1005.3 |
| 20260505023037 | 56 | 246 | 5.0 | 12.0 | 0.00 | 0.00 | 0.00 | 23 | 1005.3 |
| 20260505021534 | 56 | 285 | 6.0 | 12.0 | 0.00 | 0.00 | 0.00 | 23 | 1005.1 |
| 20260505020039 | 57 | 199 | 4.0 | 11.0 | 0.00 | 0.00 | 0.00 | 22 | 1004.9 |
| 20260505014535 | 57 | 236 | 5.0 | 17.0 | 0.00 | 0.00 | 0.00 | 22 | 1004.7 |
| 20260505013031 | 58 | 234 | 7.0 | 15.0 | 0.00 | 0.00 | 0.00 | 21 | 1004.7 |
| 20260505011528 | 58 | 238 | 4.0 | 18.0 | 0.00 | 0.00 | 0.00 | 20 | 1004.7 |
| 20260505010016 | 59 | 221 | 6.0 | 15.0 | 0.00 | 0.00 | 0.00 | 20 | 1004.4 |
| 20260505004510 | 60 | 254 | 7.0 | 17.0 | 0.00 | 0.00 | 0.00 | 20 | 1004.6 |
| 20260505003004 | 61 | 176 | 10.0 | 18.0 | 0.00 | 0.00 | 0.00 | 19 | 1004.9 |
| 20260505001502 | 62 | 199 | 7.0 | 17.0 | 0.00 | 0.00 | 0.00 | 19 | 1004.8 |
| 20260505000104 | 62 | 245 | 11.0 | 19.0 | 0.00 | 0.00 | 0.00 | 19 | 1004.5 |
| 20260504234557 | 63 | 244 | 8.0 | 17.0 | 0.00 | 0.00 | 0.00 | 19 | 1004.5 |
| 20260504233057 | 64 | 310 | 9.0 | 17.0 | 0.00 | 0.00 | 0.00 | 19 | 1004.5 |
| 20260504231553 | 63 | 206 | 9.0 | 18.0 | 0.00 | 0.00 | 0.00 | 20 | 1004.5 |
| 20260504230051 | 64 | 240 | 8.0 | 18.0 | 0.00 | 0.00 | 0.00 | 20 | 1004.2 |
| 20260504224548 | 64 | 231 | 9.0 | 19.0 | 0.00 | 0.00 | 0.00 | 21 | 1004.5 |
| 20260504223101 | 64 | 233 | 11.0 | 21.0 | 0.00 | 0.00 | 0.00 | 21 | 1004.4 |
| 20260504221544 | 64 | 244 | 10.0 | 23.0 | 0.00 | 0.00 | 0.00 | 22 | 1004.4 |
| 20260504220043 | 64 | 234 | 11.0 | 21.0 | 0.00 | 0.00 | 0.00 | 24 | 1004.7 |
| 20260504214541 | 64 | 218 | 11.0 | 22.0 | 0.00 | 0.00 | 0.00 | 25 | 1004.6 |